sensor_id;sensor_type;location;lat;lon;timestamp;temperature;humidity
48589;DHT22;34369;51.174;6.738;2023-03-07T00:01:25;4.00;65.50
48589;DHT22;34369;51.174;6.738;2023-03-07T00:04:33;4.00;65.90
48589;DHT22;34369;51.174;6.738;2023-03-07T00:08:08;4.00;66.30
48589;DHT22;34369;51.174;6.738;2023-03-07T00:11:38;4.00;66.10
48589;DHT22;34369;51.174;6.738;2023-03-07T00:15:04;4.00;66.20
48589;DHT22;34369;51.174;6.738;2023-03-07T00:18:15;4.00;66.40
48589;DHT22;34369;51.174;6.738;2023-03-07T00:21:37;4.00;66.50
48589;DHT22;34369;51.174;6.738;2023-03-07T00:28:00;4.00;66.50
48589;DHT22;34369;51.174;6.738;2023-03-07T00:35:31;4.00;66.70
48589;DHT22;34369;51.174;6.738;2023-03-07T00:38:15;4.00;67.10
48589;DHT22;34369;51.174;6.738;2023-03-07T00:40:56;4.00;66.20
48589;DHT22;34369;51.174;6.738;2023-03-07T00:43:41;4.00;66.70
48589;DHT22;34369;51.174;6.738;2023-03-07T00:46:22;3.90;66.50
48589;DHT22;34369;51.174;6.738;2023-03-07T00:48:58;3.90;66.80
48589;DHT22;34369;51.174;6.738;2023-03-07T00:51:31;3.90;66.70
48589;DHT22;34369;51.174;6.738;2023-03-07T00:54:06;3.90;66.80
48589;DHT22;34369;51.174;6.738;2023-03-07T01:04:25;3.90;67.70
48589;DHT22;34369;51.174;6.738;2023-03-07T01:07:07;3.90;67.80
48589;DHT22;34369;51.174;6.738;2023-03-07T01:10:26;3.90;67.20
48589;DHT22;34369;51.174;6.738;2023-03-07T01:13:03;3.90;68.00
48589;DHT22;34369;51.174;6.738;2023-03-07T01:15:45;3.90;67.40
48589;DHT22;34369;51.174;6.738;2023-03-07T01:18:48;3.90;68.00
48589;DHT22;34369;51.174;6.738;2023-03-07T01:22:17;3.90;68.70
48589;DHT22;34369;51.174;6.738;2023-03-07T01:25:17;3.90;68.90
48589;DHT22;34369;51.174;6.738;2023-03-07T01:28:44;4.00;68.80
48589;DHT22;34369;51.174;6.738;2023-03-07T01:32:09;4.00;68.80
48589;DHT22;34369;51.174;6.738;2023-03-07T01:35:45;4.00;69.00
48589;DHT22;34369;51.174;6.738;2023-03-07T02:03:24;4.00;69.40
48589;DHT22;34369;51.174;6.738;2023-03-07T02:07:02;4.10;69.60
48589;DHT22;34369;51.174;6.738;2023-03-07T02:11:12;4.10;69.30
48589;DHT22;34369;51.174;6.738;2023-03-07T02:26:25;4.00;69.60
48589;DHT22;34369;51.174;6.738;2023-03-07T02:37:44;4.00;69.60
48589;DHT22;34369;51.174;6.738;2023-03-07T02:41:12;4.00;70.10
48589;DHT22;34369;51.174;6.738;2023-03-07T02:48:38;4.00;69.70
48589;DHT22;34369;51.174;6.738;2023-03-07T03:03:49;4.00;70.00
48589;DHT22;34369;51.174;6.738;2023-03-07T03:07:08;4.00;70.20
48589;DHT22;34369;51.174;6.738;2023-03-07T03:14:47;4.00;70.10
48589;DHT22;34369;51.174;6.738;2023-03-07T03:33:29;4.10;70.20
48589;DHT22;34369;51.174;6.738;2023-03-07T03:41:13;4.00;70.30
48589;DHT22;34369;51.174;6.738;2023-03-07T03:48:15;4.00;70.10
48589;DHT22;34369;51.174;6.738;2023-03-07T03:59:21;4.00;70.10
48589;DHT22;34369;51.174;6.738;2023-03-07T04:03:05;4.00;69.50
48589;DHT22;34369;51.174;6.738;2023-03-07T04:10:20;4.00;69.30
48589;DHT22;34369;51.174;6.738;2023-03-07T04:14:16;4.00;70.00
48589;DHT22;34369;51.174;6.738;2023-03-07T04:21:16;4.00;69.80
48589;DHT22;34369;51.174;6.738;2023-03-07T04:37:02;4.00;69.70
48589;DHT22;34369;51.174;6.738;2023-03-07T04:40:06;3.90;69.70
48589;DHT22;34369;51.174;6.738;2023-03-07T04:43:36;3.90;69.60
48589;DHT22;34369;51.174;6.738;2023-03-07T04:46:34;3.90;69.70
48589;DHT22;34369;51.174;6.738;2023-03-07T04:49:17;3.90;69.80
48589;DHT22;34369;51.174;6.738;2023-03-07T04:56:24;3.90;69.90
48589;DHT22;34369;51.174;6.738;2023-03-07T04:59:48;3.90;69.70
48589;DHT22;34369;51.174;6.738;2023-03-07T05:03:22;3.90;70.10
48589;DHT22;34369;51.174;6.738;2023-03-07T05:06:40;3.90;70.00
48589;DHT22;34369;51.174;6.738;2023-03-07T05:10:02;3.90;69.50
48589;DHT22;34369;51.174;6.738;2023-03-07T05:20:44;3.90;69.80
48589;DHT22;34369;51.174;6.738;2023-03-07T05:33:28;3.90;69.80
48589;DHT22;34369;51.174;6.738;2023-03-07T06:18:40;3.90;70.10
48589;DHT22;34369;51.174;6.738;2023-03-07T06:22:22;3.90;70.10
48589;DHT22;34369;51.174;6.738;2023-03-07T06:34:21;3.90;70.40
48589;DHT22;34369;51.174;6.738;2023-03-07T06:41:28;4.00;69.80
48589;DHT22;34369;51.174;6.738;2023-03-07T06:45:29;4.00;70.20
48589;DHT22;34369;51.174;6.738;2023-03-07T06:52:57;4.00;70.40
48589;DHT22;34369;51.174;6.738;2023-03-07T06:57:10;4.00;70.50
48589;DHT22;34369;51.174;6.738;2023-03-07T07:16:42;4.10;70.50
48589;DHT22;34369;51.174;6.738;2023-03-07T07:19:43;4.10;70.50
48589;DHT22;34369;51.174;6.738;2023-03-07T07:22:49;4.20;69.80
48589;DHT22;34369;51.174;6.738;2023-03-07T07:25:53;4.20;69.90
48589;DHT22;34369;51.174;6.738;2023-03-07T07:37:09;4.30;70.30
48589;DHT22;34369;51.174;6.738;2023-03-07T07:40:59;4.30;70.00
48589;DHT22;34369;51.174;6.738;2023-03-07T07:44:03;4.30;70.00
48589;DHT22;34369;51.174;6.738;2023-03-07T07:54:35;4.30;70.10
48589;DHT22;34369;51.174;6.738;2023-03-07T07:57:07;4.30;69.70
48589;DHT22;34369;51.174;6.738;2023-03-07T07:59:39;4.40;69.80
48589;DHT22;34369;51.174;6.738;2023-03-07T08:02:12;4.30;69.70
48589;DHT22;34369;51.174;6.738;2023-03-07T08:04:44;4.40;69.70
48589;DHT22;34369;51.174;6.738;2023-03-07T08:07:16;4.40;69.60
48589;DHT22;34369;51.174;6.738;2023-03-07T08:09:50;4.40;69.70
48589;DHT22;34369;51.174;6.738;2023-03-07T08:12:22;4.40;69.60
48589;DHT22;34369;51.174;6.738;2023-03-07T08:14:54;4.40;69.60
48589;DHT22;34369;51.174;6.738;2023-03-07T08:17:27;4.40;69.60
48589;DHT22;34369;51.174;6.738;2023-03-07T08:19:59;4.40;69.70
48589;DHT22;34369;51.174;6.738;2023-03-07T08:22:38;4.40;69.60
48589;DHT22;34369;51.174;6.738;2023-03-07T08:25:16;4.40;69.60
48589;DHT22;34369;51.174;6.738;2023-03-07T08:27:51;4.40;69.50
48589;DHT22;34369;51.174;6.738;2023-03-07T08:30:27;4.40;69.50
48589;DHT22;34369;51.174;6.738;2023-03-07T08:33:00;4.40;69.40
48589;DHT22;34369;51.174;6.738;2023-03-07T08:35:32;4.40;69.40
48589;DHT22;34369;51.174;6.738;2023-03-07T08:38:03;4.40;69.50
48589;DHT22;34369;51.174;6.738;2023-03-07T08:40:37;4.50;69.50
48589;DHT22;34369;51.174;6.738;2023-03-07T08:43:08;4.40;69.60
48589;DHT22;34369;51.174;6.738;2023-03-07T08:45:40;4.50;69.60
48589;DHT22;34369;51.174;6.738;2023-03-07T08:48:12;4.50;69.50
48589;DHT22;34369;51.174;6.738;2023-03-07T08:50:44;4.50;69.50
48589;DHT22;34369;51.174;6.738;2023-03-07T08:53:16;4.50;69.50
48589;DHT22;34369;51.174;6.738;2023-03-07T08:55:50;4.50;69.50
48589;DHT22;34369;51.174;6.738;2023-03-07T08:58:21;4.50;69.60
48589;DHT22;34369;51.174;6.738;2023-03-07T09:00:53;4.50;69.60
48589;DHT22;34369;51.174;6.738;2023-03-07T09:03:25;4.50;69.40
48589;DHT22;34369;51.174;6.738;2023-03-07T09:05:57;4.50;69.30
48589;DHT22;34369;51.174;6.738;2023-03-07T09:08:29;4.50;69.30
48589;DHT22;34369;51.174;6.738;2023-03-07T09:11:03;4.50;69.30
48589;DHT22;34369;51.174;6.738;2023-03-07T09:13:35;4.50;69.20
48589;DHT22;34369;51.174;6.738;2023-03-07T09:16:07;4.60;69.20
48589;DHT22;34369;51.174;6.738;2023-03-07T09:18:39;4.50;69.20
48589;DHT22;34369;51.174;6.738;2023-03-07T09:21:11;4.50;69.20
48589;DHT22;34369;51.174;6.738;2023-03-07T09:23:43;4.60;69.20
48589;DHT22;34369;51.174;6.738;2023-03-07T09:26:16;4.60;69.20
48589;DHT22;34369;51.174;6.738;2023-03-07T09:28:48;4.60;69.20
48589;DHT22;34369;51.174;6.738;2023-03-07T09:31:20;4.60;69.30
48589;DHT22;34369;51.174;6.738;2023-03-07T09:33:52;4.60;69.20
48589;DHT22;34369;51.174;6.738;2023-03-07T09:36:24;4.70;69.30
48589;DHT22;34369;51.174;6.738;2023-03-07T09:38:56;4.60;69.30
48589;DHT22;34369;51.174;6.738;2023-03-07T09:41:49;4.70;69.40
48589;DHT22;34369;51.174;6.738;2023-03-07T09:44:35;4.70;69.70
48589;DHT22;34369;51.174;6.738;2023-03-07T09:47:34;4.70;69.70
48589;DHT22;34369;51.174;6.738;2023-03-07T09:50:21;4.70;69.70
48589;DHT22;34369;51.174;6.738;2023-03-07T09:53:01;4.70;69.60
48589;DHT22;34369;51.174;6.738;2023-03-07T09:55:34;4.70;69.40
48589;DHT22;34369;51.174;6.738;2023-03-07T09:58:13;4.70;69.30
48589;DHT22;34369;51.174;6.738;2023-03-07T10:00:54;4.70;69.50
48589;DHT22;34369;51.174;6.738;2023-03-07T10:03:40;4.70;69.30
48589;DHT22;34369;51.174;6.738;2023-03-07T10:06:19;4.70;68.60
48589;DHT22;34369;51.174;6.738;2023-03-07T10:08:54;4.70;68.30
48589;DHT22;34369;51.174;6.738;2023-03-07T10:11:37;4.70;67.90
48589;DHT22;34369;51.174;6.738;2023-03-07T10:18:10;4.60;67.50
48589;DHT22;34369;51.174;6.738;2023-03-07T10:20:53;4.50;67.70
48589;DHT22;34369;51.174;6.738;2023-03-07T10:23:48;4.50;67.60
48589;DHT22;34369;51.174;6.738;2023-03-07T10:26:33;4.40;67.80
48589;DHT22;34369;51.174;6.738;2023-03-07T10:29:13;4.40;67.80
48589;DHT22;34369;51.174;6.738;2023-03-07T10:35:50;4.20;67.30
48589;DHT22;34369;51.174;6.738;2023-03-07T10:38:31;4.20;67.40
48589;DHT22;34369;51.174;6.738;2023-03-07T10:41:11;4.10;67.20
48589;DHT22;34369;51.174;6.738;2023-03-07T10:43:49;4.10;67.40
48589;DHT22;34369;51.174;6.738;2023-03-07T10:46:26;4.00;67.60
48589;DHT22;34369;51.174;6.738;2023-03-07T10:49:07;3.90;67.80
48589;DHT22;34369;51.174;6.738;2023-03-07T10:51:50;3.90;68.10
48589;DHT22;34369;51.174;6.738;2023-03-07T10:54:29;3.90;68.20
48589;DHT22;34369;51.174;6.738;2023-03-07T10:57:09;3.90;68.20
48589;DHT22;34369;51.174;6.738;2023-03-07T10:59:47;3.80;68.00
48589;DHT22;34369;51.174;6.738;2023-03-07T11:02:33;3.80;68.00
48589;DHT22;34369;51.174;6.738;2023-03-07T11:05:24;3.80;68.30
48589;DHT22;34369;51.174;6.738;2023-03-07T11:08:20;3.80;68.40
48589;DHT22;34369;51.174;6.738;2023-03-07T11:10:58;3.80;68.50
48589;DHT22;34369;51.174;6.738;2023-03-07T11:13:31;3.80;68.30
48589;DHT22;34369;51.174;6.738;2023-03-07T12:29:52;3.20;67.70
48589;DHT22;34369;51.174;6.738;2023-03-07T12:55:41;3.20;67.90
48589;DHT22;34369;51.174;6.738;2023-03-07T13:18:00;3.30;67.50
48589;DHT22;34369;51.174;6.738;2023-03-07T13:48:01;3.30;67.30
48589;DHT22;34369;51.174;6.738;2023-03-07T13:58:32;3.20;67.50
48589;DHT22;34369;51.174;6.738;2023-03-07T14:01:57;3.20;67.50
48589;DHT22;34369;51.174;6.738;2023-03-07T14:05:09;3.20;67.50
48589;DHT22;34369;51.174;6.738;2023-03-07T14:08:31;3.20;67.10
48589;DHT22;34369;51.174;6.738;2023-03-07T14:11:32;3.20;66.90
48589;DHT22;34369;51.174;6.738;2023-03-07T14:18:39;3.20;67.10
48589;DHT22;34369;51.174;6.738;2023-03-07T15:13:37;2.60;66.50
48589;DHT22;34369;51.174;6.738;2023-03-07T15:47:26;2.10;66.80
48589;DHT22;34369;51.174;6.738;2023-03-07T15:50:03;2.10;66.60
48589;DHT22;34369;51.174;6.738;2023-03-07T15:52:38;2.00;66.70
48589;DHT22;34369;51.174;6.738;2023-03-07T15:55:18;2.00;66.80
48589;DHT22;34369;51.174;6.738;2023-03-07T15:57:53;2.00;66.90
48589;DHT22;34369;51.174;6.738;2023-03-07T16:00:33;1.90;66.90
48589;DHT22;34369;51.174;6.738;2023-03-07T16:03:23;1.90;67.00
48589;DHT22;34369;51.174;6.738;2023-03-07T16:05:59;1.90;67.30
48589;DHT22;34369;51.174;6.738;2023-03-07T16:08:32;1.90;67.20
48589;DHT22;34369;51.174;6.738;2023-03-07T16:11:05;1.80;67.20
48589;DHT22;34369;51.174;6.738;2023-03-07T16:13:42;1.80;67.20
48589;DHT22;34369;51.174;6.738;2023-03-07T16:16:20;1.80;67.30
48589;DHT22;34369;51.174;6.738;2023-03-07T16:18:57;1.80;67.30
48589;DHT22;34369;51.174;6.738;2023-03-07T16:21:30;1.70;67.50
48589;DHT22;34369;51.174;6.738;2023-03-07T16:24:02;1.70;67.40
48589;DHT22;34369;51.174;6.738;2023-03-07T16:26:35;1.70;67.50
48589;DHT22;34369;51.174;6.738;2023-03-07T16:29:11;1.70;67.60
48589;DHT22;34369;51.174;6.738;2023-03-07T16:31:46;1.60;67.70
48589;DHT22;34369;51.174;6.738;2023-03-07T16:34:21;1.70;67.70
48589;DHT22;34369;51.174;6.738;2023-03-07T16:36:54;1.60;67.80
48589;DHT22;34369;51.174;6.738;2023-03-07T16:39:26;1.60;67.80
48589;DHT22;34369;51.174;6.738;2023-03-07T16:41:59;1.60;67.80
48589;DHT22;34369;51.174;6.738;2023-03-07T16:44:37;1.60;67.80
48589;DHT22;34369;51.174;6.738;2023-03-07T16:47:18;1.60;67.90
48589;DHT22;34369;51.174;6.738;2023-03-07T16:53:55;1.50;68.20
48589;DHT22;34369;51.174;6.738;2023-03-07T16:56:33;1.50;68.30
48589;DHT22;34369;51.174;6.738;2023-03-07T17:02:33;1.50;68.10
48589;DHT22;34369;51.174;6.738;2023-03-07T17:12:44;1.50;68.40
48589;DHT22;34369;51.174;6.738;2023-03-07T17:22:00;1.40;68.50
48589;DHT22;34369;51.174;6.738;2023-03-07T17:35:10;1.40;68.70
48589;DHT22;34369;51.174;6.738;2023-03-07T17:38:00;1.40;68.20
48589;DHT22;34369;51.174;6.738;2023-03-07T17:40:33;1.40;68.10
48589;DHT22;34369;51.174;6.738;2023-03-07T17:43:08;1.40;68.30
48589;DHT22;34369;51.174;6.738;2023-03-07T17:45:42;1.40;68.40
48589;DHT22;34369;51.174;6.738;2023-03-07T17:48:19;1.40;68.50
48589;DHT22;34369;51.174;6.738;2023-03-07T18:06:20;1.30;69.00
48589;DHT22;34369;51.174;6.738;2023-03-07T18:12:11;1.40;68.90
48589;DHT22;34369;51.174;6.738;2023-03-07T18:15:00;1.30;69.00
48589;DHT22;34369;51.174;6.738;2023-03-07T18:17:34;1.40;69.20
48589;DHT22;34369;51.174;6.738;2023-03-07T18:24:23;1.40;69.10
48589;DHT22;34369;51.174;6.738;2023-03-07T18:27:28;1.40;69.00
48589;DHT22;34369;51.174;6.738;2023-03-07T19:09:56;1.20;68.80
48589;DHT22;34369;51.174;6.738;2023-03-07T19:13:50;1.20;68.70
48589;DHT22;34369;51.174;6.738;2023-03-07T19:21:46;1.20;68.90
48589;DHT22;34369;51.174;6.738;2023-03-07T19:50:19;1.20;69.00
48589;DHT22;34369;51.174;6.738;2023-03-07T19:53:35;1.20;68.90
48589;DHT22;34369;51.174;6.738;2023-03-07T19:57:00;1.20;68.90
48589;DHT22;34369;51.174;6.738;2023-03-07T20:04:07;1.20;69.30
48589;DHT22;34369;51.174;6.738;2023-03-07T20:22:32;1.20;69.10
48589;DHT22;34369;51.174;6.738;2023-03-07T20:25:32;1.20;68.90
48589;DHT22;34369;51.174;6.738;2023-03-07T20:29:13;1.20;68.50
48589;DHT22;34369;51.174;6.738;2023-03-07T20:57:19;1.20;69.00
48589;DHT22;34369;51.174;6.738;2023-03-07T21:44:27;1.00;68.60
48589;DHT22;34369;51.174;6.738;2023-03-07T21:47:07;1.00;69.10
48589;DHT22;34369;51.174;6.738;2023-03-07T21:50:34;1.00;68.60
48589;DHT22;34369;51.174;6.738;2023-03-07T21:53:35;1.00;69.20
48589;DHT22;34369;51.174;6.738;2023-03-07T21:56:54;1.00;68.70
48589;DHT22;34369;51.174;6.738;2023-03-07T21:59:39;1.10;68.70
48589;DHT22;34369;51.174;6.738;2023-03-07T22:03:05;1.00;69.10
48589;DHT22;34369;51.174;6.738;2023-03-07T22:05:39;1.00;69.30
48589;DHT22;34369;51.174;6.738;2023-03-07T22:08:19;1.00;68.70
48589;DHT22;34369;51.174;6.738;2023-03-07T22:11:16;1.00;68.70
48589;DHT22;34369;51.174;6.738;2023-03-07T22:14:06;1.10;68.70
48589;DHT22;34369;51.174;6.738;2023-03-07T22:16:48;1.10;68.60
48589;DHT22;34369;51.174;6.738;2023-03-07T22:19:28;1.10;69.00
48589;DHT22;34369;51.174;6.738;2023-03-07T22:22:04;1.00;69.00
48589;DHT22;34369;51.174;6.738;2023-03-07T22:24:53;1.10;69.00
48589;DHT22;34369;51.174;6.738;2023-03-07T22:27:32;1.10;69.30
48589;DHT22;34369;51.174;6.738;2023-03-07T22:30:10;1.10;69.00
48589;DHT22;34369;51.174;6.738;2023-03-07T22:32:46;1.10;69.20
48589;DHT22;34369;51.174;6.738;2023-03-07T22:35:24;1.00;69.30
48589;DHT22;34369;51.174;6.738;2023-03-07T22:37:57;1.10;69.20
48589;DHT22;34369;51.174;6.738;2023-03-07T22:40:32;1.10;69.10
48589;DHT22;34369;51.174;6.738;2023-03-07T22:43:10;1.10;69.00
48589;DHT22;34369;51.174;6.738;2023-03-07T22:45:47;1.10;69.60
48589;DHT22;34369;51.174;6.738;2023-03-07T22:48:22;1.10;69.00
48589;DHT22;34369;51.174;6.738;2023-03-07T22:50:57;1.10;69.00
48589;DHT22;34369;51.174;6.738;2023-03-07T22:53:35;1.10;68.90
48589;DHT22;34369;51.174;6.738;2023-03-07T22:56:16;1.10;69.10
48589;DHT22;34369;51.174;6.738;2023-03-07T22:58:55;1.10;69.20
48589;DHT22;34369;51.174;6.738;2023-03-07T23:01:33;1.10;69.20
48589;DHT22;34369;51.174;6.738;2023-03-07T23:04:11;1.10;69.10
48589;DHT22;34369;51.174;6.738;2023-03-07T23:06:47;1.10;69.20
48589;DHT22;34369;51.174;6.738;2023-03-07T23:09:21;1.10;69.20
48589;DHT22;34369;51.174;6.738;2023-03-07T23:12:29;1.10;69.30
48589;DHT22;34369;51.174;6.738;2023-03-07T23:15:45;1.10;69.90
